createdAt,value
2019-02-11T00:02:34.358Z,7.37
2019-02-11T00:07:26.713Z,5.60
2019-02-11T00:12:19.449Z,4.97
2019-02-11T00:17:12.024Z,7.20
2019-02-11T00:22:04.468Z,4.60
2019-02-11T00:26:57.109Z,3.30
2019-02-11T00:31:49.484Z,3.47
2019-02-11T00:36:41.773Z,5.10
2019-02-11T00:41:34.139Z,4.43
2019-02-11T00:46:26.521Z,4.00
2019-02-11T00:51:19.025Z,3.47
2019-02-11T00:56:11.437Z,4.40
2019-02-11T01:01:04.033Z,4.70
2019-02-11T01:05:56.532Z,4.00
2019-02-11T01:10:48.957Z,5.00
2019-02-11T01:15:41.728Z,6.07
2019-02-11T01:20:34.217Z,4.47
2019-02-11T01:25:26.707Z,7.53
2019-02-11T01:30:19.199Z,4.77
2019-02-11T01:35:11.587Z,7.37
2019-02-11T01:40:06.813Z,7.30
2019-02-11T01:44:59.042Z,4.80
2019-02-11T01:49:51.646Z,6.33
2019-02-11T01:54:43.952Z,5.83
2019-02-11T01:59:36.612Z,4.03
2019-02-11T02:04:29.318Z,7.77
2019-02-11T02:09:21.609Z,6.10
2019-02-11T02:14:14.259Z,5.67
2019-02-11T02:19:06.756Z,7.07
2019-02-11T02:23:59.174Z,12.67
2019-02-11T02:28:51.801Z,7.00
2019-02-11T02:33:44.242Z,7.17
2019-02-11T02:38:36.994Z,5.00
2019-02-11T02:43:29.556Z,4.80
2019-02-11T02:48:21.856Z,7.97
2019-02-11T02:53:13.998Z,6.90
2019-02-11T02:58:06.348Z,6.27
2019-02-11T03:02:58.961Z,5.33
2019-02-11T03:07:51.365Z,6.30
2019-02-11T03:12:43.903Z,6.67
2019-02-11T03:17:36.628Z,5.87
2019-02-11T03:22:29.188Z,5.20
2019-02-11T03:27:21.772Z,5.10
2019-02-11T03:32:14.234Z,6.23
2019-02-11T03:37:06.598Z,8.47
2019-02-11T03:41:59.094Z,6.20
2019-02-11T03:46:51.616Z,8.43
2019-02-11T03:51:44.166Z,6.93
2019-02-11T03:56:36.960Z,6.53
2019-02-11T04:01:29.301Z,7.43
2019-02-11T04:06:22.020Z,8.87
2019-02-11T04:11:14.525Z,5.87
2019-02-11T04:16:06.804Z,7.80
2019-02-11T04:20:59.145Z,7.93
2019-02-11T04:25:51.443Z,11.37
2019-02-11T04:30:43.974Z,6.97
2019-02-11T04:35:36.057Z,9.63
2019-02-11T04:40:28.609Z,6.80
2019-02-11T04:45:21.021Z,6.13
2019-02-11T04:50:13.673Z,8.47
2019-02-11T04:55:08.722Z,26.80
2019-02-11T05:00:01.446Z,12.30
2019-02-11T05:04:53.775Z,6.63
2019-02-11T05:09:46.557Z,6.40
2019-02-11T05:14:43.790Z,7.97
2019-02-11T05:19:33.311Z,7.47
2019-02-11T05:24:25.891Z,9.17
2019-02-11T05:29:18.464Z,9.20
2019-02-11T05:34:10.773Z,8.40
2019-02-11T05:39:04.594Z,7.40
2019-02-11T05:43:56.934Z,7.63
2019-02-11T05:48:49.258Z,8.40
2019-02-11T05:53:41.736Z,8.20
2019-02-11T05:58:34.264Z,6.30
2019-02-11T06:03:26.839Z,7.23
2019-02-11T06:08:19.350Z,9.33
2019-02-11T06:13:12.121Z,7.93
2019-02-11T06:18:23.924Z,9.70
2019-02-11T06:23:16.478Z,7.47
2019-02-11T06:28:08.520Z,10.27
2019-02-11T06:33:00.951Z,9.00
2019-02-11T06:37:53.574Z,7.20
2019-02-11T06:42:46.307Z,6.80
2019-02-11T06:47:38.945Z,8.03
2019-02-11T06:52:31.819Z,12.03
2019-02-11T06:57:24.496Z,7.87
2019-02-11T07:02:16.873Z,9.47
2019-02-11T07:07:09.571Z,15.17
2019-02-11T07:12:02.164Z,12.80
2019-02-11T07:16:54.457Z,10.33
2019-02-11T07:21:46.765Z,11.53
2019-02-11T07:26:39.198Z,14.87
2019-02-11T07:31:31.581Z,11.27
2019-02-11T07:36:23.942Z,36.83
2019-02-11T07:41:16.994Z,14.60
2019-02-11T07:46:11.552Z,13.22
2019-02-11T07:51:04.188Z,17.15
2019-02-11T07:55:56.640Z,10.98
2019-02-11T08:00:49.348Z,17.17
2019-02-11T08:05:41.875Z,9.05
2019-02-11T08:10:34.223Z,8.28
2019-02-11T08:15:26.444Z,8.60
2019-02-11T08:20:19.065Z,9.70
2019-02-11T08:25:11.934Z,9.83
2019-02-11T08:30:07.764Z,10.15
2019-02-11T08:35:00.383Z,9.10
2019-02-11T08:39:53.005Z,7.10
2019-02-11T08:44:45.760Z,9.47
2019-02-11T08:49:38.119Z,16.60
2019-02-11T08:54:30.723Z,13.63
2019-02-11T08:59:23.205Z,16.13
2019-02-11T09:04:18.985Z,14.07
2019-02-11T09:09:09.894Z,10.33
2019-02-11T09:14:02.158Z,9.70
2019-02-11T09:18:54.982Z,10.88
2019-02-11T09:23:47.518Z,8.58
2019-02-11T09:28:39.871Z,6.58
2019-02-11T09:33:32.429Z,19.57
2019-02-11T09:38:25.054Z,10.50
2019-02-11T09:43:17.396Z,9.00
2019-02-11T09:48:10.150Z,11.10
2019-02-11T09:53:03.666Z,9.70
2019-02-11T09:57:56.435Z,11.67
2019-02-11T10:02:48.975Z,15.65
2019-02-11T10:07:41.735Z,10.43
2019-02-11T10:12:34.537Z,11.57
2019-02-11T10:17:29.859Z,9.38
2019-02-11T10:22:22.042Z,15.68
2019-02-11T10:27:26.524Z,9.83
2019-02-11T10:32:19.401Z,8.30
2019-02-11T10:37:11.973Z,11.05
2019-02-11T10:42:04.524Z,8.93
2019-02-11T10:46:57.353Z,10.35
2019-02-11T10:51:49.757Z,10.35
2019-02-11T10:56:42.477Z,11.45
2019-02-11T11:01:35.128Z,12.28
2019-02-11T11:06:27.520Z,9.53
2019-02-11T11:11:20.313Z,8.45
2019-02-11T11:16:13.101Z,13.03
2019-02-11T11:21:06.652Z,10.98
2019-02-11T11:25:59.003Z,9.28
2019-02-11T11:30:51.435Z,7.75
2019-02-11T11:35:43.948Z,11.08
2019-02-11T11:40:36.384Z,7.95
2019-02-11T11:45:29.054Z,11.68
2019-02-11T11:50:22.016Z,9.25
2019-02-11T11:55:17.307Z,10.53
2019-02-11T12:00:21.637Z,7.78
2019-02-11T12:05:15.601Z,7.17
2019-02-11T12:10:09.381Z,8.08
2019-02-11T12:15:01.934Z,7.60
2019-02-11T12:19:54.812Z,6.10
2019-02-11T12:24:47.500Z,8.60
2019-02-11T12:29:40.002Z,5.33
2019-02-11T12:34:32.357Z,12.35
2019-02-11T12:39:25.401Z,11.25
2019-02-11T12:44:18.088Z,9.95
2019-02-11T12:49:10.737Z,9.93
2019-02-11T12:54:03.018Z,10.70
2019-02-11T12:58:55.408Z,8.28
2019-02-11T13:03:47.866Z,8.83
2019-02-11T13:08:40.212Z,8.73
2019-02-11T13:13:32.728Z,10.03
2019-02-11T13:18:25.589Z,12.15
2019-02-11T13:23:18.525Z,6.90
2019-02-11T13:28:11.188Z,11.15
2019-02-11T13:33:03.921Z,7.20
2019-02-11T13:37:56.648Z,7.42
2019-02-11T13:42:48.658Z,7.85
2019-02-11T13:47:53.821Z,11.70
2019-02-11T13:52:35.450Z,7.12
2019-02-11T13:57:28.309Z,7.33
2019-02-11T14:02:20.528Z,7.17
2019-02-11T14:07:13.049Z,8.90
2019-02-11T14:12:05.893Z,4.78
2019-02-11T14:16:58.774Z,7.08
2019-02-11T14:21:50.992Z,8.95
2019-02-11T14:26:43.618Z,8.65
2019-02-11T14:31:36.401Z,10.55
2019-02-11T14:36:29.208Z,8.60
2019-02-11T14:41:21.690Z,7.53
2019-02-11T14:46:14.174Z,6.97
2019-02-11T14:51:06.785Z,7.85
2019-02-11T14:55:59.285Z,8.70
2019-02-11T15:00:51.952Z,11.30
2019-02-11T15:05:44.801Z,9.93
2019-02-11T15:10:37.481Z,7.58
2019-02-11T15:15:30.185Z,10.82
2019-02-11T15:20:22.829Z,11.97
2019-02-11T15:25:19.288Z,9.55
2019-02-11T15:30:14.782Z,10.43
2019-02-11T15:35:08.737Z,35.00
2019-02-11T15:40:01.055Z,19.20
2019-02-11T15:44:53.757Z,55.30
2019-02-11T15:49:46.365Z,16.30
2019-02-11T15:54:39.152Z,8.47
2019-02-11T15:59:31.505Z,6.30
2019-02-11T16:04:23.825Z,9.20
2019-02-11T16:09:16.357Z,7.60
2019-02-11T16:14:08.862Z,7.03
2019-02-11T16:19:01.417Z,12.50
2019-02-11T16:23:53.919Z,11.03
2019-02-11T16:28:46.636Z,13.40
2019-02-11T16:33:38.867Z,9.93
2019-02-11T16:38:31.364Z,7.50
2019-02-11T16:43:24.084Z,10.93
2019-02-11T16:48:16.632Z,9.63
2019-02-11T16:53:09.274Z,10.83
2019-02-11T16:58:01.733Z,11.57
2019-02-11T17:02:54.487Z,8.50
2019-02-11T17:07:47.336Z,16.30
2019-02-11T17:12:40.059Z,12.67
2019-02-11T17:17:32.562Z,14.37
2019-02-11T17:22:24.985Z,10.47
2019-02-11T17:27:17.494Z,10.63
2019-02-11T17:32:09.929Z,8.67
2019-02-11T17:37:02.240Z,9.97
2019-02-11T17:41:55.233Z,14.80
2019-02-11T17:46:47.752Z,56.63
2019-02-11T17:51:40.389Z,52.67
2019-02-11T17:56:32.884Z,32.43
2019-02-11T18:01:25.717Z,31.57
2019-02-11T18:06:18.283Z,43.07
2019-02-11T18:11:10.580Z,47.73
2019-02-11T18:16:03.015Z,35.07
2019-02-11T18:20:55.466Z,22.17
2019-02-11T18:25:47.599Z,17.27
2019-02-11T18:30:40.523Z,17.47
2019-02-11T18:35:33.158Z,15.70
2019-02-11T18:40:25.638Z,15.87
2019-02-11T18:45:19.116Z,12.63
2019-02-11T18:50:15.693Z,13.33
2019-02-11T18:55:10.821Z,11.07
2019-02-11T19:00:05.061Z,12.50
2019-02-11T19:04:57.849Z,14.23
2019-02-11T19:09:50.164Z,21.80
2019-02-11T19:14:42.520Z,11.50
2019-02-11T19:19:42.807Z,17.77
2019-02-11T19:24:28.826Z,22.33
2019-02-11T19:29:21.217Z,20.70
2019-02-11T19:34:13.592Z,25.37
2019-02-11T19:39:06.517Z,25.90
2019-02-11T19:43:58.972Z,30.00
2019-02-11T19:48:51.289Z,40.53
2019-02-11T19:53:43.942Z,28.93
2019-02-11T19:58:36.641Z,48.43
2019-02-11T20:03:29.276Z,78.27
2019-02-11T20:08:21.937Z,33.30
2019-02-11T20:13:14.454Z,46.20
2019-02-11T20:18:07.081Z,34.27
2019-02-11T20:22:59.528Z,27.60
2019-02-11T20:27:52.311Z,26.83
2019-02-11T20:32:44.866Z,26.47
2019-02-11T20:37:37.441Z,20.80
2019-02-11T20:42:30.005Z,21.30
2019-02-11T20:47:22.545Z,26.87
2019-02-11T20:52:15.013Z,23.40
2019-02-11T20:57:07.700Z,83.20
2019-02-11T21:02:00.409Z,49.10
2019-02-11T21:06:53.137Z,38.77
2019-02-11T21:11:46.251Z,40.77
2019-02-11T21:16:38.620Z,44.80
2019-02-11T21:21:32.183Z,32.07
2019-02-11T21:26:24.434Z,26.77
2019-02-11T21:31:16.901Z,21.43
2019-02-11T21:36:09.346Z,21.23
2019-02-11T21:41:01.819Z,29.17
2019-02-11T21:45:54.329Z,24.37
2019-02-11T21:50:46.557Z,30.83
2019-02-11T21:55:39.131Z,26.50
2019-02-11T22:00:32.401Z,29.80
2019-02-11T22:05:24.896Z,26.00
2019-02-11T22:10:19.666Z,27.37
2019-02-11T22:15:13.772Z,28.57
2019-02-11T22:20:09.358Z,22.03
2019-02-11T22:25:01.794Z,15.10
2019-02-11T22:29:54.550Z,19.10
2019-02-11T22:34:47.073Z,18.27
2019-02-11T22:39:39.674Z,17.80
2019-02-11T22:44:32.370Z,21.07
2019-02-11T22:49:25.390Z,20.30
2019-02-11T22:54:17.814Z,21.03
2019-02-11T22:59:10.409Z,22.53
2019-02-11T23:04:03.121Z,27.53
2019-02-11T23:08:55.649Z,18.47
2019-02-11T23:13:48.202Z,20.57
2019-02-11T23:18:40.945Z,18.77
2019-02-11T23:23:33.589Z,18.77
2019-02-11T23:28:26.300Z,15.87
2019-02-11T23:33:18.758Z,23.77
2019-02-11T23:38:11.065Z,20.77
2019-02-11T23:43:03.183Z,18.13
2019-02-11T23:47:55.910Z,28.20
2019-02-11T23:52:48.473Z,41.13
2019-02-11T23:57:41.234Z,31.70
